Time;durP1;ratioP1;P1;durP2;ratioP2;P2;SDS_P1;SDS_P2;PMS_P1;PMS_P2;Temp;Humidity;BMP_temperature;BMP_pressure;BME280_temperature;BME280_humidity;BME280_pressure;Samples;Min_cycle;Max_cycle;Signal;HPM_P1;HPM_P2
2023/07/03 00:00:33;;;;;;;20.58;10.80;;;;;;;;;;4971648;28;20030;-68
2023/07/03 00:02:59;;;;;;;16.50;11.00;;;;;;;;;;4971868;28;20019;-69
2023/07/03 00:05:25;;;;;;;21.00;11.10;;;;;;;;;;4972134;28;20030;-69
2023/07/03 00:07:52;;;;;;;17.98;11.65;;;;;;;;;;4971088;28;20027;-68
2023/07/03 00:10:21;;;;;;;22.40;11.75;;;;;;;;;;4971887;28;20031;-68
2023/07/03 00:12:47;;;;;;;19.55;11.82;;;;;;;;;;4971947;28;20074;-69
2023/07/03 00:15:13;;;;;;;18.70;10.88;;;;;;;;;;4972214;28;20030;-68
2023/07/03 00:17:39;;;;;;;17.25;11.18;;;;;;;;;;4971314;28;20031;-68
2023/07/03 00:20:06;;;;;;;17.85;11.50;;;;;;;;;;4971792;28;20030;-68
2023/07/03 00:22:32;;;;;;;19.00;11.07;;;;;;;;;;4971761;28;20066;-69
2023/07/03 00:24:58;;;;;;;19.05;11.27;;;;;;;;;;4971841;28;20374;-69
2023/07/03 00:27:24;;;;;;;20.05;11.48;;;;;;;;;;4971480;28;20026;-69
2023/07/03 00:29:50;;;;;;;20.35;11.32;;;;;;;;;;4971565;28;20019;-68
2023/07/03 00:32:16;;;;;;;20.52;12.02;;;;;;;;;;4971971;28;20015;-68
2023/07/03 00:34:42;;;;;;;21.73;11.55;;;;;;;;;;4971758;28;20397;-68
2023/07/03 00:37:08;;;;;;;20.40;10.60;;;;;;;;;;4971146;28;20035;-68
2023/07/03 00:39:34;;;;;;;22.48;12.27;;;;;;;;;;4971425;28;20031;-68
2023/07/03 00:42:00;;;;;;;19.80;11.73;;;;;;;;;;4971649;28;20034;-68
2023/07/03 00:44:26;;;;;;;19.60;11.98;;;;;;;;;;4971759;28;20034;-68
2023/07/03 00:46:52;;;;;;;24.48;11.80;;;;;;;;;;4972012;28;20101;-70
2023/07/03 00:49:20;;;;;;;18.42;11.02;;;;;;;;;;4970639;28;20084;-68
2023/07/03 00:51:52;;;;;;;23.75;11.75;;;;;;;;;;4986596;28;20029;-68
2023/07/03 00:54:18;;;;;;;19.50;11.57;;;;;;;;;;4991190;28;20106;-68
2023/07/03 00:56:44;;;;;;;19.23;12.32;;;;;;;;;;5008530;28;20420;-68
2023/07/03 00:59:10;;;;;;;20.40;11.75;;;;;;;;;;4993700;28;20157;-69
2023/07/03 01:01:36;;;;;;;27.10;12.32;;;;;;;;;;4994426;28;20034;-68
2023/07/03 01:04:11;;;;;;;23.42;12.23;;;;;;;;;;5009164;28;20034;-68
2023/07/03 01:06:42;;;;;;;20.80;11.50;;;;;;;;;;4993839;28;20033;-68
2023/07/03 01:09:08;;;;;;;;;;;;;;;;;;4993690;28;20037;-69
2023/07/03 01:11:34;;;;;;;21.63;11.88;;;;;;;;;;4994236;28;19912;-69
2023/07/03 01:14:02;;;;;;;19.98;11.40;;;;;;;;;;4993980;28;20030;-68
2023/07/03 01:16:30;;;;;;;21.50;12.10;;;;;;;;;;4994014;28;20105;-69
2023/07/03 01:18:58;;;;;;;23.83;11.55;;;;;;;;;;4993097;28;20101;-69
2023/07/03 01:21:29;;;;;;;19.13;11.93;;;;;;;;;;4994045;28;20062;-69
2023/07/03 01:24:04;;;;;;;18.73;11.77;;;;;;;;;;4993933;28;20026;-69
2023/07/03 01:26:30;;;;;;;18.35;11.60;;;;;;;;;;4993843;28;20034;-68
2023/07/03 01:28:58;;;;;;;17.30;10.43;;;;;;;;;;4993110;28;20022;-69
2023/07/03 01:31:25;;;;;;;24.40;12.25;;;;;;;;;;4993668;28;20034;-68
2023/07/03 01:33:51;;;;;;;20.85;10.73;;;;;;;;;;4993635;28;20030;-68
2023/07/03 01:36:18;;;;;;;20.55;11.18;;;;;;;;;;5008560;28;20022;-69
2023/07/03 01:38:45;;;;;;;24.38;12.55;;;;;;;;;;4993067;28;20497;-69
2023/07/03 01:41:11;;;;;;;26.35;12.50;;;;;;;;;;4993264;28;20445;-69
2023/07/03 01:43:38;;;;;;;21.90;12.23;;;;;;;;;;4993430;28;20034;-69
2023/07/03 01:46:04;;;;;;;18.80;11.18;;;;;;;;;;4993316;28;20045;-68
2023/07/03 01:48:33;;;;;;;20.50;11.85;;;;;;;;;;4992472;28;20553;-69
2023/07/03 01:51:00;;;;;;;19.00;11.52;;;;;;;;;;4984785;28;20018;-69
2023/07/03 01:53:32;;;;;;;18.13;11.27;;;;;;;;;;4972484;28;20054;-69
2023/07/03 01:56:24;;;;;;;20.35;11.55;;;;;;;;;;4973850;28;20397;-69
2023/07/03 01:58:52;;;;;;;20.23;11.88;;;;;;;;;;4971643;28;20428;-69
2023/07/03 02:01:24;;;;;;;19.58;12.23;;;;;;;;;;4973879;28;20055;-69
2023/07/03 02:03:55;;;;;;;18.65;11.82;;;;;;;;;;4973630;28;20038;-69
2023/07/03 02:06:24;;;;;;;21.17;12.68;;;;;;;;;;4973693;28;20035;-69
2023/07/03 02:08:52;;;;;;;19.15;11.95;;;;;;;;;;4972592;28;20176;-69
2023/07/03 02:11:21;;;;;;;20.15;11.40;;;;;;;;;;4973564;28;20094;-68
2023/07/03 02:13:47;;;;;;;24.98;12.18;;;;;;;;;;4973396;28;20571;-68
2023/07/03 02:16:15;;;;;;;22.58;12.85;;;;;;;;;;4973621;28;20027;-68
2023/07/03 02:18:46;;;;;;;22.00;12.68;;;;;;;;;;4972783;28;20031;-69
2023/07/03 02:21:12;;;;;;;22.95;12.38;;;;;;;;;;5028802;23;20152;-70
2023/07/03 02:23:38;;;;;;;21.02;12.07;;;;;;;;;;5011903;28;20042;-70
2023/07/03 02:26:04;;;;;;;22.40;13.35;;;;;;;;;;5012045;28;20030;-70
2023/07/03 02:28:30;;;;;;;20.17;11.55;;;;;;;;;;5011539;28;20053;-69
2023/07/03 02:30:56;;;;;;;21.85;13.23;;;;;;;;;;5012116;28;20033;-69
2023/07/03 02:33:22;;;;;;;23.15;12.70;;;;;;;;;;5012196;28;20468;-70
2023/07/03 02:35:48;;;;;;;18.88;11.55;;;;;;;;;;5012005;28;20117;-70
2023/07/03 02:38:15;;;;;;;22.50;13.07;;;;;;;;;;5011302;28;20021;-70
2023/07/03 02:40:41;;;;;;;20.90;11.75;;;;;;;;;;5011747;28;20033;-70
2023/07/03 02:43:08;;;;;;;21.73;12.95;;;;;;;;;;5011928;28;20025;-70
2023/07/03 02:45:42;;;;;;;26.67;13.82;;;;;;;;;;5012070;28;20079;-70
2023/07/03 02:48:09;;;;;;;21.88;12.35;;;;;;;;;;5011262;28;20033;-71
2023/07/03 02:50:35;;;;;;;24.13;12.20;;;;;;;;;;5006192;28;20026;-70
2023/07/03 02:53:01;;;;;;;23.42;12.20;;;;;;;;;;4992263;28;20034;-70
2023/07/03 02:55:27;;;;;;;18.75;12.07;;;;;;;;;;4992023;28;20506;-70
2023/07/03 02:57:57;;;;;;;22.60;13.02;;;;;;;;;;4991476;28;20484;-72
2023/07/03 03:00:24;;;;;;;24.30;12.85;;;;;;;;;;4991923;28;20529;-70
2023/07/03 03:02:50;;;;;;;21.65;11.95;;;;;;;;;;4992254;28;20031;-69
2023/07/03 03:05:16;;;;;;;37.97;25.23;;;;;;;;;;4991920;28;20036;-70
2023/07/03 03:07:42;;;;;;;33.65;19.55;;;;;;;;;;4991341;28;20145;-69
2023/07/03 03:10:08;;;;;;;32.83;20.05;;;;;;;;;;4991990;28;20033;-70
2023/07/03 03:12:34;;;;;;;22.65;13.02;;;;;;;;;;4991998;28;20022;-70
2023/07/03 03:15:00;;;;;;;32.95;18.42;;;;;;;;;;4991875;28;20046;-70
2023/07/03 03:17:26;;;;;;;23.48;13.82;;;;;;;;;;4991082;28;20121;-70
2023/07/03 03:19:52;;;;;;;18.80;11.43;;;;;;;;;;4973556;28;20121;-71
2023/07/03 03:22:18;;;;;;;33.80;21.48;;;;;;;;;;4991456;28;20065;-70
2023/07/03 03:24:45;;;;;;;24.08;14.25;;;;;;;;;;4991922;28;20037;-70
2023/07/03 03:27:11;;;;;;;19.25;11.30;;;;;;;;;;4990973;28;20488;-70
2023/07/03 03:29:38;;;;;;;22.40;12.32;;;;;;;;;;4991740;28;20121;-71
2023/07/03 03:32:04;;;;;;;19.20;11.43;;;;;;;;;;4991723;28;20069;-71
2023/07/03 03:34:32;;;;;;;20.85;11.75;;;;;;;;;;4974207;28;20038;-70
2023/07/03 03:36:59;;;;;;;18.48;10.77;;;;;;;;;;4991452;28;20485;-69
2023/07/03 03:39:25;;;;;;;20.20;10.88;;;;;;;;;;4991446;28;20027;-71
2023/07/03 03:41:51;;;;;;;17.15;10.27;;;;;;;;;;4974120;28;20030;-71
2023/07/03 03:44:17;;;;;;;17.95;10.75;;;;;;;;;;4974442;28;20068;-70
2023/07/03 03:46:43;;;;;;;24.50;12.18;;;;;;;;;;4991984;28;20026;-71
2023/07/03 03:49:10;;;;;;;18.25;11.52;;;;;;;;;;4990687;28;20080;-71
2023/07/03 03:51:36;;;;;;;19.58;11.50;;;;;;;;;;4991757;28;20081;-71
2023/07/03 03:54:02;;;;;;;20.13;10.85;;;;;;;;;;4991245;28;20058;-71
2023/07/03 03:56:28;;;;;;;20.70;11.57;;;;;;;;;;4991542;28;20023;-70
2023/07/03 03:58:54;;;;;;;19.98;11.02;;;;;;;;;;4990530;28;20551;-70
2023/07/03 04:01:20;;;;;;;22.70;11.52;;;;;;;;;;4991485;28;20042;-70
2023/07/03 04:03:46;;;;;;;18.77;11.57;;;;;;;;;;4991099;28;20038;-70
2023/07/03 04:06:14;;;;;;;19.73;11.52;;;;;;;;;;4991470;28;20030;-70
2023/07/03 04:08:40;;;;;;;22.67;11.70;;;;;;;;;;4990572;28;20015;-71
2023/07/03 04:11:07;;;;;;;23.38;12.07;;;;;;;;;;4991247;28;20029;-71
2023/07/03 04:13:33;;;;;;;22.63;11.93;;;;;;;;;;4991171;28;20035;-71
2023/07/03 04:16:00;;;;;;;19.00;11.10;;;;;;;;;;4991087;28;20026;-71
2023/07/03 04:18:26;;;;;;;22.65;12.10;;;;;;;;;;4990432;28;20153;-71
2023/07/03 04:20:52;;;;;;;19.20;11.40;;;;;;;;;;4990995;28;20050;-70
2023/07/03 04:23:18;;;;;;;19.38;11.23;;;;;;;;;;4991109;28;20027;-70
2023/07/03 04:25:45;;;;;;;18.30;11.35;;;;;;;;;;4990938;28;20026;-70
2023/07/03 04:28:11;;;;;;;15.10;11.02;;;;;;;;;;4990513;28;20027;-71
2023/07/03 04:30:37;;;;;;;18.90;11.98;;;;;;;;;;4991698;28;20026;-71
2023/07/03 04:33:04;;;;;;;21.23;11.32;;;;;;;;;;4994706;28;20022;-71
2023/07/03 04:35:30;;;;;;;19.05;11.75;;;;;;;;;;4994883;28;20034;-71
2023/07/03 04:37:56;;;;;;;17.17;11.27;;;;;;;;;;4993882;28;20022;-70
2023/07/03 04:40:22;;;;;;;26.73;12.05;;;;;;;;;;4977123;28;20492;-70
2023/07/03 04:42:48;;;;;;;17.70;11.43;;;;;;;;;;4994788;28;20031;-71
2023/07/03 04:45:16;;;;;;;25.13;11.20;;;;;;;;;;4994531;28;20019;-71
2023/07/03 04:47:42;;;;;;;21.60;12.00;;;;;;;;;;4993828;28;20034;-71
2023/07/03 04:50:10;;;;;;;23.13;12.05;;;;;;;;;;4994306;28;20042;-71
2023/07/03 04:52:38;;;;;;;16.33;10.75;;;;;;;;;;4992596;28;20027;-72
2023/07/03 04:55:05;;;;;;;16.30;10.95;;;;;;;;;;4976905;28;20440;-71
2023/07/03 04:57:31;;;;;;;18.02;10.85;;;;;;;;;;4993674;28;20029;-71
2023/07/03 04:59:57;;;;;;;17.20;10.75;;;;;;;;;;4994059;28;20026;-72
2023/07/03 05:02:23;;;;;;;18.92;12.15;;;;;;;;;;4994361;28;20105;-72
2023/07/03 05:04:51;;;;;;;16.05;10.45;;;;;;;;;;4994256;28;20026;-72
2023/07/03 05:07:19;;;;;;;16.50;10.82;;;;;;;;;;4993516;28;20026;-72
2023/07/03 05:09:45;;;;;;;18.55;11.00;;;;;;;;;;4994178;28;20025;-72
2023/07/03 05:12:12;;;;;;;17.98;11.38;;;;;;;;;;4993906;28;20416;-73
2023/07/03 05:14:38;;;;;;;18.20;10.95;;;;;;;;;;4976518;28;20026;-73
2023/07/03 05:17:04;;;;;;;15.20;10.95;;;;;;;;;;4993246;28;20113;-72
2023/07/03 05:19:30;;;;;;;16.42;10.90;;;;;;;;;;4993885;28;20026;-73
2023/07/03 05:21:56;;;;;;;19.65;11.90;;;;;;;;;;4993658;28;20595;-73
2023/07/03 05:24:22;;;;;;;18.02;11.07;;;;;;;;;;4993958;28;20034;-73
2023/07/03 05:26:48;;;;;;;18.45;11.10;;;;;;;;;;4993394;28;20089;-74
2023/07/03 05:29:14;;;;;;;17.80;11.45;;;;;;;;;;4975645;28;20022;-73
2023/07/03 05:31:40;;;;;;;22.05;11.13;;;;;;;;;;4993511;28;20074;-72
2023/07/03 05:34:06;;;;;;;17.08;10.95;;;;;;;;;;4993496;28;20053;-72
2023/07/03 05:36:32;;;;;;;16.98;10.63;;;;;;;;;;4993536;28;20535;-73
2023/07/03 05:38:58;;;;;;;17.02;10.93;;;;;;;;;;4975127;28;20085;-73
2023/07/03 05:41:24;;;;;;;16.13;10.18;;;;;;;;;;4993242;28;20026;-73
2023/07/03 05:43:50;;;;;;;17.27;10.82;;;;;;;;;;4975495;28;20539;-73
2023/07/03 05:46:16;;;;;;;19.77;11.25;;;;;;;;;;4993326;28;20198;-73
2023/07/03 05:48:43;;;;;;;19.90;11.05;;;;;;;;;;4992567;28;20453;-74
2023/07/03 05:51:09;;;;;;;16.98;10.68;;;;;;;;;;4993220;28;20101;-73
2023/07/03 05:53:35;;;;;;;14.65;9.80;;;;;;;;;;4993308;28;20105;-72
2023/07/03 05:56:02;;;;;;;16.63;10.07;;;;;;;;;;4993203;28;20528;-72
2023/07/03 05:58:28;;;;;;;16.42;10.43;;;;;;;;;;4992447;28;20077;-73
2023/07/03 06:00:54;;;;;;;17.00;11.23;;;;;;;;;;4992868;28;20477;-73
2023/07/03 06:03:20;;;;;;;17.88;10.23;;;;;;;;;;4992927;28;20086;-73
2023/07/03 06:05:46;;;;;;;20.52;11.05;;;;;;;;;;4992960;28;20015;-72
2023/07/03 06:08:13;;;;;;;17.73;11.07;;;;;;;;;;4974484;28;20496;-73
2023/07/03 06:10:41;;;;;;;19.85;11.55;;;;;;;;;;4992626;28;20037;-74
2023/07/03 06:13:07;;;;;;;19.92;10.30;;;;;;;;;;4992825;28;20031;-73
2023/07/03 06:15:36;;;;;;;14.95;9.80;;;;;;;;;;4974667;28;20041;-74
2023/07/03 06:18:03;;;;;;;19.63;10.18;;;;;;;;;;4974781;28;20448;-74
2023/07/03 06:20:29;;;;;;;20.30;10.98;;;;;;;;;;4992464;28;20030;-74
2023/07/03 06:22:55;;;;;;;16.35;9.73;;;;;;;;;;4992984;28;20049;-75
2023/07/03 06:25:21;;;;;;;17.70;9.60;;;;;;;;;;4992385;28;20469;-74
2023/07/03 06:27:47;;;;;;;18.67;11.10;;;;;;;;;;4991791;28;20109;-75
2023/07/03 06:30:14;;;;;;;19.48;10.57;;;;;;;;;;4992230;28;20467;-74
2023/07/03 06:32:40;;;;;;;14.23;9.73;;;;;;;;;;4975505;28;20022;-74
2023/07/03 06:35:06;;;;;;;17.02;10.25;;;;;;;;;;4992325;28;20027;-74
2023/07/03 06:37:32;;;;;;;17.48;10.40;;;;;;;;;;4991783;28;20077;-75
2023/07/03 06:39:58;;;;;;;21.67;10.68;;;;;;;;;;4992288;28;20026;-75
2023/07/03 06:42:25;;;;;;;17.75;9.60;;;;;;;;;;4992027;28;20053;-74
2023/07/03 06:44:51;;;;;;;18.58;10.20;;;;;;;;;;4992076;28;20101;-74
2023/07/03 06:47:17;;;;;;;17.02;9.77;;;;;;;;;;4991495;28;20027;-76
2023/07/03 06:49:43;;;;;;;15.88;9.45;;;;;;;;;;4992142;28;20018;-75
2023/07/03 06:52:10;;;;;;;15.00;8.65;;;;;;;;;;4992040;28;20022;-74
2023/07/03 06:54:36;;;;;;;16.08;8.30;;;;;;;;;;4972789;28;20026;-74
2023/07/03 06:57:02;;;;;;;13.93;7.88;;;;;;;;;;4989684;28;20026;-73
2023/07/03 06:59:29;;;;;;;15.48;8.20;;;;;;;;;;4990048;28;20693;-74
2023/07/03 07:01:55;;;;;;;12.32;7.68;;;;;;;;;;4990161;28;20037;-74
2023/07/03 07:04:21;;;;;;;15.45;8.60;;;;;;;;;;4989097;28;20035;-75
2023/07/03 07:06:48;;;;;;;15.23;7.18;;;;;;;;;;4990300;28;20022;-76
2023/07/03 07:09:15;;;;;;;17.30;8.38;;;;;;;;;;4989756;28;20551;-75
2023/07/03 07:11:42;;;;;;;17.73;8.05;;;;;;;;;;4974185;28;20033;-75
2023/07/03 07:14:08;;;;;;;20.25;7.72;;;;;;;;;;4991888;28;20057;-75
2023/07/03 07:16:35;;;;;;;19.05;8.20;;;;;;;;;;4991875;28;20031;-76
2023/07/03 07:19:03;;;;;;;12.73;7.07;;;;;;;;;;4991114;28;20037;-76
2023/07/03 07:21:30;;;;;;;15.30;6.95;;;;;;;;;;4991873;28;20444;-76
2023/07/03 07:24:04;;;;;;;14.80;8.32;;;;;;;;;;4991374;28;20034;-76
2023/07/03 07:26:33;;;;;;;15.75;8.07;;;;;;;;;;4973911;28;20058;-76
2023/07/03 07:28:59;;;;;;;16.25;7.88;;;;;;;;;;4973540;28;20026;-76
2023/07/03 07:31:26;;;;;;;15.88;7.68;;;;;;;;;;4991798;28;20105;-76
2023/07/03 07:33:52;;;;;;;15.18;8.15;;;;;;;;;;4991448;28;20353;-75
2023/07/03 07:36:19;;;;;;;13.82;7.30;;;;;;;;;;4991367;28;20030;-75
2023/07/03 07:38:45;;;;;;;15.32;8.05;;;;;;;;;;4990712;28;20026;-75
2023/07/03 07:41:12;;;;;;;19.42;8.52;;;;;;;;;;4990402;28;20479;-75
2023/07/03 07:43:38;;;;;;;16.23;7.82;;;;;;;;;;4995340;28;20026;-75
2023/07/03 07:46:04;;;;;;;14.43;7.32;;;;;;;;;;5002529;28;20030;-73
2023/07/03 07:48:31;;;;;;;16.92;7.65;;;;;;;;;;4990913;28;20030;-74
2023/07/03 07:50:57;;;;;;;13.38;6.28;;;;;;;;;;4973675;28;20027;-74
2023/07/03 07:53:26;;;;;;;16.08;7.22;;;;;;;;;;4991346;28;20445;-74
2023/07/03 07:55:52;;;;;;;14.02;7.88;;;;;;;;;;4973978;28;20025;-74
2023/07/03 07:58:18;;;;;;;12.50;6.65;;;;;;;;;;4990885;28;20093;-74
2023/07/03 08:00:44;;;;;;;17.08;7.30;;;;;;;;;;4991566;28;20027;-74
2023/07/03 08:03:10;;;;;;;16.42;7.40;;;;;;;;;;4990990;28;20037;-73
2023/07/03 08:05:37;;;;;;;13.95;7.25;;;;;;;;;;4993655;28;20030;-73
2023/07/03 08:08:03;;;;;;;14.65;7.28;;;;;;;;;;4976921;28;20018;-74
2023/07/03 08:10:29;;;;;;;12.85;6.32;;;;;;;;;;4995541;28;20029;-75
2023/07/03 08:12:55;;;;;;;12.00;6.82;;;;;;;;;;4994996;28;20105;-74
2023/07/03 08:15:21;;;;;;;14.35;7.30;;;;;;;;;;4995203;28;20102;-74
2023/07/03 08:17:48;;;;;;;15.82;7.30;;;;;;;;;;4994565;28;20026;-74
2023/07/03 08:20:14;;;;;;;15.80;6.85;;;;;;;;;;5021551;22;20077;-71
2023/07/03 08:22:40;;;;;;;13.90;7.15;;;;;;;;;;5017186;28;20045;-73
2023/07/03 08:25:06;;;;;;;12.82;6.32;;;;;;;;;;5016851;28;20033;-73
2023/07/03 08:27:32;;;;;;;16.30;7.65;;;;;;;;;;5014339;28;20022;-74
2023/07/03 08:29:58;;;;;;;15.80;7.03;;;;;;;;;;5015248;28;20500;-74
2023/07/03 08:32:24;;;;;;;13.02;6.05;;;;;;;;;;5014802;28;20026;-74
2023/07/03 08:34:51;;;;;;;11.65;6.00;;;;;;;;;;5014205;28;20069;-74
2023/07/03 08:37:17;;;;;;;14.80;7.97;;;;;;;;;;5014454;28;20030;-74
2023/07/03 08:39:43;;;;;;;14.32;7.05;;;;;;;;;;5014650;28;20026;-74
2023/07/03 08:42:19;;;;;;;16.02;7.53;;;;;;;;;;5014881;28;20360;-74
2023/07/03 08:44:45;;;;;;;19.13;6.60;;;;;;;;;;5014896;28;20390;-74
2023/07/03 08:47:14;;;;;;;14.98;6.82;;;;;;;;;;5013701;28;20606;-74
2023/07/03 08:49:41;;;;;;;13.05;6.18;;;;;;;;;;5013813;28;20034;-74
2023/07/03 08:52:07;;;;;;;14.98;6.78;;;;;;;;;;5014122;28;20101;-74
2023/07/03 08:54:35;;;;;;;16.35;6.53;;;;;;;;;;5013933;28;20053;-74
2023/07/03 08:57:03;;;;;;;15.07;6.18;;;;;;;;;;5013545;28;20026;-74
2023/07/03 08:59:29;;;;;;;17.25;6.50;;;;;;;;;;4996310;28;20512;-74
2023/07/03 09:02:01;;;;;;;14.80;5.90;;;;;;;;;;5014256;28;20026;-74
2023/07/03 09:04:33;;;;;;;12.90;5.93;;;;;;;;;;5012422;28;20113;-74
2023/07/03 09:07:01;;;;;;;13.48;6.20;;;;;;;;;;5015538;28;20374;-74
2023/07/03 09:09:46;;;;;;;18.27;7.15;;;;;;;;;;4996189;28;20025;-74
2023/07/03 09:12:15;;;;;;;13.15;6.18;;;;;;;;;;5014495;28;20021;-75
2023/07/03 09:14:44;;;;;;;18.10;6.40;;;;;;;;;;5014410;28;20026;-74
2023/07/03 09:17:10;;;;;;;11.82;5.43;;;;;;;;;;5013384;28;20474;-74
2023/07/03 09:19:39;;;;;;;12.48;6.13;;;;;;;;;;5014820;28;20488;-75
2023/07/03 09:22:06;;;;;;;14.02;6.20;;;;;;;;;;5014805;28;20037;-74
2023/07/03 09:24:37;;;;;;;11.80;5.85;;;;;;;;;;5014428;28;20129;-76
2023/07/03 09:27:03;;;;;;;11.57;5.68;;;;;;;;;;5014747;28;20108;-75
2023/07/03 09:29:31;;;;;;;15.93;6.70;;;;;;;;;;5013669;28;20053;-74
2023/07/03 09:31:57;;;;;;;11.77;6.63;;;;;;;;;;5012503;28;20433;-75
2023/07/03 09:34:23;;;;;;;11.45;6.20;;;;;;;;;;5011252;28;20140;-75
2023/07/03 09:36:58;;;;;;;14.82;6.00;;;;;;;;;;5011698;28;20060;-75
2023/07/03 09:39:25;;;;;;;14.88;6.53;;;;;;;;;;5011520;28;20547;-74
2023/07/03 09:41:53;;;;;;;16.50;6.10;;;;;;;;;;4993816;28;20050;-74
2023/07/03 09:44:21;;;;;;;12.90;5.40;;;;;;;;;;5011822;28;20038;-74
2023/07/03 09:46:48;;;;;;;12.70;6.20;;;;;;;;;;5012108;28;20026;-74
2023/07/03 09:49:20;;;;;;;14.73;6.30;;;;;;;;;;5011540;28;20025;-73
2023/07/03 09:51:50;;;;;;;16.83;6.88;;;;;;;;;;5012482;28;20022;-73
2023/07/03 09:54:20;;;;;;;18.52;5.80;;;;;;;;;;5013274;28;20034;-73
2023/07/03 09:56:49;;;;;;;11.52;5.90;;;;;;;;;;5012805;28;20026;-74
2023/07/03 09:59:17;;;;;;;12.38;5.90;;;;;;;;;;5012429;28;20029;-74
2023/07/03 10:01:43;;;;;;;14.93;6.35;;;;;;;;;;5012720;28;20465;-73
2023/07/03 10:04:11;;;;;;;11.93;5.45;;;;;;;;;;4994924;28;20083;-74
2023/07/03 10:06:37;;;;;;;13.95;6.50;;;;;;;;;;5012710;28;20105;-75
2023/07/03 10:09:05;;;;;;;15.98;5.90;;;;;;;;;;5011252;28;20108;-74
2023/07/03 10:11:37;;;;;;;13.55;6.35;;;;;;;;;;5011932;28;20029;-75
2023/07/03 10:14:06;;;;;;;12.93;6.90;;;;;;;;;;5012416;28;20172;-75
2023/07/03 10:16:33;;;;;;;14.20;6.10;;;;;;;;;;5012099;28;20033;-75
2023/07/03 10:18:59;;;;;;;14.18;6.38;;;;;;;;;;5011772;28;20101;-73
2023/07/03 10:21:25;;;;;;;16.70;6.78;;;;;;;;;;5012210;28;20120;-73
2023/07/03 10:23:52;;;;;;;13.52;6.15;;;;;;;;;;5001361;28;20517;-74
2023/07/03 10:26:18;;;;;;;16.60;6.50;;;;;;;;;;5015530;28;20026;-74
2023/07/03 10:29:04;;;;;;;12.02;6.22;;;;;;;;;;5012035;28;20033;-74
2023/07/03 10:31:33;;;;;;;15.77;6.15;;;;;;;;;;5023287;28;20049;-74
2023/07/03 10:34:11;;;;;;;17.88;6.68;;;;;;;;;;4994897;28;20496;-74
2023/07/03 10:36:39;;;;;;;17.20;6.88;;;;;;;;;;5012228;28;20030;-74
2023/07/03 10:39:16;;;;;;;12.48;6.57;;;;;;;;;;5011610;28;20022;-74
2023/07/03 10:41:57;;;;;;;22.05;7.45;;;;;;;;;;5015501;28;20128;-75
2023/07/03 10:44:26;;;;;;;13.40;6.45;;;;;;;;;;5017185;28;20368;-72
2023/07/03 10:46:57;;;;;;;21.25;6.68;;;;;;;;;;5022547;28;20018;-74
2023/07/03 10:49:24;;;;;;;;;;;;;;;;;;5026461;28;20025;-74
2023/07/03 10:51:55;;;;;;;14.32;6.28;;;;;;;;;;5023780;28;19944;-75
2023/07/03 10:54:24;;;;;;;17.58;6.53;;;;;;;;;;5018077;28;20539;-74
2023/07/03 10:56:55;;;;;;;14.93;6.82;;;;;;;;;;5022103;28;20064;-75
2023/07/03 10:59:28;;;;;;;21.13;6.97;;;;;;;;;;5016255;28;20492;-75
2023/07/03 11:02:17;;;;;;;18.92;7.63;;;;;;;;;;5012164;28;20036;-74
2023/07/03 11:04:46;;;;;;;16.98;7.03;;;;;;;;;;5012031;28;20500;-75
2023/07/03 11:07:12;;;;;;;19.15;7.20;;;;;;;;;;5000381;28;20022;-76
2023/07/03 11:09:57;;;;;;;15.02;6.53;;;;;;;;;;5016920;28;20052;-76
2023/07/03 11:12:26;;;;;;;15.48;6.43;;;;;;;;;;5024538;28;20017;-78
2023/07/03 11:15:01;;;;;;;16.13;7.15;;;;;;;;;;5017476;28;20033;-75
2023/07/03 11:17:27;;;;;;;13.18;6.35;;;;;;;;;;5017159;28;20324;-77
2023/07/03 11:19:53;;;;;;;12.60;5.70;;;;;;;;;;5007630;28;20506;-76
2023/07/03 11:22:25;;;;;;;15.48;6.43;;;;;;;;;;5011941;28;20025;-76
2023/07/03 11:24:56;;;;;;;12.07;5.38;;;;;;;;;;5014922;28;20034;-76
2023/07/03 11:27:33;;;;;;;10.77;5.57;;;;;;;;;;5028347;28;20030;-75
2023/07/03 11:30:00;;;;;;;15.40;6.20;;;;;;;;;;5001856;28;20387;-75
2023/07/03 11:32:26;;;;;;;13.32;6.25;;;;;;;;;;5010996;28;20052;-74
2023/07/03 11:34:53;;;;;;;16.48;6.57;;;;;;;;;;5011210;28;20029;-74
2023/07/03 11:37:51;;;;;;;15.65;6.10;;;;;;;;;;4992772;28;20121;-75
2023/07/03 11:40:20;;;;;;;14.27;5.60;;;;;;;;;;4967426;28;20085;-75
2023/07/03 11:42:46;;;;;;;11.10;5.20;;;;;;;;;;5009233;28;20484;-75
2023/07/03 11:45:24;;;;;;;17.90;6.00;;;;;;;;;;5008084;28;20022;-75
2023/07/03 11:47:52;;;;;;;11.23;5.53;;;;;;;;;;5007369;28;20488;-75
2023/07/03 11:50:26;;;;;;;15.93;6.75;;;;;;;;;;5008068;28;20022;-75
2023/07/03 11:52:52;;;;;;;13.05;5.57;;;;;;;;;;5008000;28;20021;-75
2023/07/03 11:55:21;;;;;;;12.40;5.97;;;;;;;;;;5006460;28;20381;-75
2023/07/03 11:57:50;;;;;;;13.10;6.05;;;;;;;;;;5009032;28;20031;-75
2023/07/03 12:00:16;;;;;;;13.50;5.80;;;;;;;;;;5010808;28;20032;-74
2023/07/03 12:02:44;;;;;;;15.20;5.60;;;;;;;;;;5010933;28;20026;-75
2023/07/03 12:05:10;;;;;;;12.93;5.95;;;;;;;;;;5010817;28;20026;-76
2023/07/03 12:07:36;;;;;;;13.73;6.00;;;;;;;;;;5010261;28;20056;-76
2023/07/03 12:10:28;;;;;;;17.13;6.32;;;;;;;;;;5010996;28;20062;-74
2023/07/03 12:13:12;;;;;;;17.42;6.03;;;;;;;;;;5010728;28;20053;-75
2023/07/03 12:15:38;;;;;;;14.85;6.18;;;;;;;;;;5010815;28;20034;-75
2023/07/03 12:18:08;;;;;;;13.95;5.75;;;;;;;;;;5009994;28;20026;-75
2023/07/03 12:20:34;;;;;;;15.88;6.63;;;;;;;;;;5010671;28;20488;-75
2023/07/03 12:23:00;;;;;;;17.08;6.03;;;;;;;;;;5010624;28;20036;-76
2023/07/03 12:25:27;;;;;;;14.02;5.85;;;;;;;;;;5010747;28;20022;-75
2023/07/03 12:27:54;;;;;;;12.30;6.32;;;;;;;;;;5009814;28;20021;-76
2023/07/03 12:30:24;;;;;;;17.30;5.90;;;;;;;;;;5010636;28;20642;-76
2023/07/03 12:32:51;;;;;;;12.68;5.88;;;;;;;;;;5010315;28;20029;-76
2023/07/03 12:35:18;;;;;;;17.17;6.25;;;;;;;;;;5010600;28;20392;-76
2023/07/03 12:37:46;;;;;;;15.35;6.25;;;;;;;;;;5009769;28;20030;-73
2023/07/03 12:40:13;;;;;;;20.67;7.15;;;;;;;;;;5010228;28;20033;-74
2023/07/03 12:42:39;;;;;;;11.52;5.75;;;;;;;;;;5010358;28;20032;-75
2023/07/03 12:45:16;;;;;;;12.25;5.40;;;;;;;;;;5010388;28;20493;-75
2023/07/03 12:47:43;;;;;;;12.43;6.05;;;;;;;;;;5009706;28;20029;-75
2023/07/03 12:50:13;;;;;;;13.57;6.22;;;;;;;;;;5010683;28;20018;-75
2023/07/03 12:52:39;;;;;;;10.65;5.50;;;;;;;;;;5012627;28;20026;-75
2023/07/03 12:55:06;;;;;;;17.10;5.95;;;;;;;;;;5012451;28;20518;-76
2023/07/03 12:57:34;;;;;;;13.02;5.93;;;;;;;;;;5013300;28;20156;-75
2023/07/03 13:00:00;;;;;;;15.30;5.90;;;;;;;;;;5014098;28;20029;-77
2023/07/03 13:02:28;;;;;;;12.52;5.88;;;;;;;;;;5013932;28;20038;-76
2023/07/03 13:04:57;;;;;;;15.63;6.30;;;;;;;;;;5014292;28;20096;-76
2023/07/03 13:07:24;;;;;;;12.63;5.68;;;;;;;;;;4995323;28;20030;-76
2023/07/03 13:09:51;;;;;;;12.82;5.70;;;;;;;;;;5013718;28;20030;-76
2023/07/03 13:12:22;;;;;;;12.55;5.43;;;;;;;;;;5013670;28;20022;-76
2023/07/03 13:14:59;;;;;;;19.50;6.80;;;;;;;;;;5013860;28;20030;-76
2023/07/03 13:17:26;;;;;;;10.20;5.65;;;;;;;;;;5012601;28;20109;-75
2023/07/03 13:19:52;;;;;;;16.67;6.45;;;;;;;;;;5013542;28;20488;-77
2023/07/03 13:22:20;;;;;;;12.52;6.40;;;;;;;;;;5013030;28;20049;-76
2023/07/03 13:24:48;;;;;;;13.25;5.22;;;;;;;;;;5013319;28;20080;-76
2023/07/03 13:27:21;;;;;;;12.68;5.93;;;;;;;;;;5012510;28;20021;-76
2023/07/03 13:29:47;;;;;;;13.30;5.60;;;;;;;;;;5013234;28;20474;-77
2023/07/03 13:32:14;;;;;;;11.15;5.60;;;;;;;;;;5013065;28;20018;-77
2023/07/03 13:34:59;;;;;;;15.15;5.78;;;;;;;;;;5013172;28;20519;-76
2023/07/03 13:37:26;;;;;;;14.85;5.25;;;;;;;;;;5012473;28;20089;-75
2023/07/03 13:39:52;;;;;;;14.40;5.30;;;;;;;;;;5013115;28;20026;-75
2023/07/03 13:42:19;;;;;;;14.93;5.72;;;;;;;;;;5012396;28;20037;-76
2023/07/03 13:44:45;;;;;;;13.30;5.20;;;;;;;;;;5012636;28;20026;-75
2023/07/03 13:47:11;;;;;;;15.70;6.15;;;;;;;;;;5012367;28;20053;-75
2023/07/03 13:49:37;;;;;;;14.43;5.28;;;;;;;;;;5012806;28;20018;-76
2023/07/03 13:52:04;;;;;;;11.95;4.72;;;;;;;;;;5012594;28;20428;-78
2023/07/03 13:54:30;;;;;;;15.52;5.80;;;;;;;;;;5013299;28;20112;-76
2023/07/03 13:56:56;;;;;;;15.45;5.40;;;;;;;;;;4994873;28;20030;-76
2023/07/03 13:59:22;;;;;;;12.02;4.95;;;;;;;;;;5011873;28;20033;-76
2023/07/03 14:01:48;;;;;;;17.73;6.53;;;;;;;;;;5012290;28;20030;-76
2023/07/03 14:04:14;;;;;;;12.60;5.32;;;;;;;;;;5012281;28;20080;-76
2023/07/03 14:06:40;;;;;;;15.40;5.78;;;;;;;;;;5012673;28;20449;-76
2023/07/03 14:09:08;;;;;;;15.82;5.90;;;;;;;;;;5011882;28;20033;-76
2023/07/03 14:11:35;;;;;;;12.35;4.70;;;;;;;;;;5012828;28;20430;-76
2023/07/03 14:14:01;;;;;;;12.60;5.15;;;;;;;;;;5012841;28;20062;-76
2023/07/03 14:16:28;;;;;;;12.05;4.97;;;;;;;;;;5020203;28;20052;-76
2023/07/03 14:18:54;;;;;;;14.95;5.32;;;;;;;;;;5019589;28;20096;-76
2023/07/03 14:21:22;;;;;;;14.55;4.88;;;;;;;;;;5016856;28;20056;-76
2023/07/03 14:23:48;;;;;;;11.75;5.22;;;;;;;;;;5013315;28;20476;-76
2023/07/03 14:26:14;;;;;;;12.68;5.43;;;;;;;;;;5013067;28;20036;-76